Strona główna
METAR-TAF:

METAR-TAF

Lotnisko :

Port lotniczy Koror

Koror, Babeldaob, Palau

Szerokość geograficzna: 07-22N, Długość geograficzna: 134-32E, wysokość: 54 m

Aktualna obserwacja pogody

Raport powstał 42 minut temu, godzina 16:50 UTC
Wiatr 2 kt od północ
Temperatura 26°C
Wilgotność 89%
Ciśnienie 1009 hPa
Widzialność: 24.1 km
Rozproszone chmury na wysokości 1600 ft, Cumulusy wypiętrznone.
Przerywane chmury na wysokości 12000 ft
Przerywane chmury na wysokości 30000 ft

METAR: PTRO 191650Z 35002KT 15SM SCT016TCU BKN120 BKN300 26/24 A2981 RMK TCU ALQDS

czas: 02:32 (17:32 UTC)

Prognoza

Raport powstał 6 godziny i 4 minut temu, godzina 11:28 UTC
Prognoza ważna od 19 godzina 12 UTC do 20 godzina 12 UTC
Wiatr 5 kt z kierunków zmiennych
Widzialność: 10 km
Rozproszone chmury na wysokości 1600 ft
Przerywane chmury na wysokości 12000 ft
przelotny w pobliże

TAF: PTRO 191128Z 1912/2012 VRB05KT P6SM VCSH SCT016 BKN120

Obserwacja i prognoza pogody dla ponad 4000 lotnisk (raport METAR i TAF).

Dostępne stacje oznaczono żółtymi i czerwonymi punktami na mapie.

Najedź kursorem aby zobaczyć nazwę stacji.

Kliknij aby zobaczyć obserwacje i prognozy pogody.

Aby zmienić mapę: kliknij na zielony przycisk z czarnym krzyżykiem, aby powiększyć; na zielony przycisk z myślnikiem, aby pomniejszyć; na zielone strzałki, aby przejść do map sąsiednich.


METAR-TAF: